createdAt,value
2023-05-12T00:00:22.315Z,63.22
2023-05-12T00:03:05.967Z,63.40
2023-05-12T00:05:50.680Z,63.87
2023-05-12T00:08:34.328Z,63.59
2023-05-12T00:11:18.045Z,63.42
2023-05-12T00:14:01.662Z,62.94
2023-05-12T00:16:45.009Z,62.98
2023-05-12T00:19:28.349Z,63.68
2023-05-12T00:22:13.050Z,63.47
2023-05-12T00:24:56.552Z,63.79
2023-05-12T00:27:40.117Z,62.97
2023-05-12T00:30:23.608Z,63.11
2023-05-12T00:33:07.090Z,64.09
2023-05-12T00:35:50.362Z,63.37
2023-05-12T00:38:37.427Z,64.55
2023-05-12T00:41:20.833Z,64.72
2023-05-12T00:44:04.347Z,65.24
2023-05-12T00:46:47.836Z,64.88
2023-05-12T00:49:31.788Z,65.46
2023-05-12T00:52:20.500Z,65.70
2023-05-12T00:55:06.931Z,65.86
2023-05-12T00:57:50.142Z,65.86
2023-05-12T01:00:33.339Z,66.15
2023-05-12T01:03:18.601Z,66.56
2023-05-12T01:06:09.295Z,66.26
2023-05-12T01:08:53.403Z,64.93
2023-05-12T01:11:38.326Z,66.06
2023-05-12T01:14:21.550Z,66.41
2023-05-12T01:17:11.516Z,67.25
2023-05-12T01:19:59.870Z,68.87
2023-05-12T01:22:44.214Z,69.26
2023-05-12T01:25:30.216Z,69.93
2023-05-12T01:28:15.835Z,69.67
2023-05-12T01:31:00.145Z,69.24
2023-05-12T01:33:43.731Z,68.71
2023-05-12T01:36:26.967Z,70.73
2023-05-12T01:39:10.456Z,70.28
2023-05-12T01:41:53.752Z,70.36
2023-05-12T01:44:39.154Z,71.24
2023-05-12T01:47:22.515Z,70.92
2023-05-12T01:50:07.065Z,71.05
2023-05-12T01:52:50.641Z,72.53
2023-05-12T01:55:34.672Z,73.41
2023-05-12T01:58:19.518Z,74.62
2023-05-12T02:01:04.625Z,73.89
2023-05-12T02:03:48.385Z,75.06
2023-05-12T02:06:32.883Z,75.89
2023-05-12T02:09:16.132Z,75.21
2023-05-12T02:11:59.409Z,75.51
2023-05-12T02:14:42.602Z,76.20
2023-05-12T02:17:28.940Z,76.82
2023-05-12T02:20:13.228Z,79.75
2023-05-12T02:22:56.433Z,80.51
2023-05-12T02:25:39.635Z,81.68
2023-05-12T02:28:22.934Z,81.96
2023-05-12T02:31:06.071Z,79.40
2023-05-12T02:33:51.770Z,77.47
2023-05-12T02:36:34.961Z,77.86
2023-05-12T02:39:19.301Z,79.11
2023-05-12T02:42:02.497Z,80.57
2023-05-12T02:44:45.616Z,81.35
2023-05-12T02:47:31.453Z,81.71
2023-05-12T02:50:16.823Z,81.74
2023-05-12T02:53:00.064Z,81.95
2023-05-12T02:55:43.347Z,81.86
2023-05-12T02:58:26.670Z,82.60
2023-05-12T03:01:11.512Z,83.56
2023-05-12T03:03:55.421Z,83.67
2023-05-12T03:06:40.266Z,83.85
2023-05-12T03:09:24.000Z,84.45
2023-05-12T03:12:08.123Z,84.56
2023-05-12T03:14:51.440Z,85.55
2023-05-12T03:17:34.725Z,84.35
2023-05-12T03:20:18.437Z,85.92
2023-05-12T03:23:03.925Z,84.83
2023-05-12T03:25:47.056Z,85.55
2023-05-12T03:28:30.251Z,86.11
2023-05-12T03:31:13.649Z,86.97
2023-05-12T03:33:56.811Z,86.86
2023-05-12T03:36:41.073Z,86.53
2023-05-12T03:39:25.741Z,86.52
2023-05-12T03:42:09.112Z,86.78
2023-05-12T03:44:52.475Z,86.97
2023-05-12T03:47:36.427Z,87.11
2023-05-12T03:50:20.372Z,87.07
2023-05-12T03:53:03.924Z,87.87
2023-05-12T03:55:51.235Z,87.10
2023-05-12T03:58:34.685Z,86.95
2023-05-12T04:01:18.224Z,85.67
2023-05-12T04:04:01.504Z,85.32
2023-05-12T04:06:44.701Z,87.11
2023-05-12T04:09:27.868Z,86.31
2023-05-12T04:12:12.692Z,86.76
2023-05-12T04:14:56.144Z,86.03
2023-05-12T04:17:39.363Z,85.64
2023-05-12T04:20:23.554Z,86.13
2023-05-12T04:23:08.267Z,86.12
2023-05-12T04:25:51.443Z,85.17
2023-05-12T04:28:37.115Z,84.98
2023-05-12T04:31:21.750Z,85.35
2023-05-12T04:34:05.190Z,84.47
2023-05-12T04:36:48.370Z,84.38
2023-05-12T04:39:32.754Z,83.04
2023-05-12T04:42:15.816Z,83.72
2023-05-12T04:45:01.544Z,83.50
2023-05-12T04:47:44.812Z,84.38
2023-05-12T04:50:30.313Z,84.60
2023-05-12T04:53:13.784Z,84.90
2023-05-12T04:55:57.524Z,85.11
2023-05-12T04:58:40.998Z,84.69
2023-05-12T05:01:25.597Z,83.88
2023-05-12T05:04:08.867Z,83.51
2023-05-12T05:06:52.052Z,82.90
2023-05-12T05:09:37.004Z,83.48
2023-05-12T05:12:20.560Z,82.80
2023-05-12T05:15:04.068Z,81.63
2023-05-12T05:17:49.926Z,81.56
2023-05-12T05:20:34.620Z,81.73
2023-05-12T05:23:17.951Z,81.86
2023-05-12T05:26:01.335Z,81.32
2023-05-12T05:28:44.527Z,80.83
2023-05-12T05:31:29.043Z,81.00
2023-05-12T05:34:13.827Z,81.34
2023-05-12T05:36:57.327Z,80.72
2023-05-12T05:39:40.449Z,81.23
2023-05-12T05:42:23.574Z,81.61
2023-05-12T05:45:07.691Z,82.55
2023-05-12T05:47:52.411Z,81.76
2023-05-12T05:50:36.990Z,81.58
2023-05-12T05:53:21.166Z,81.79
2023-05-12T05:56:04.729Z,82.50
2023-05-12T05:58:50.236Z,81.26
2023-05-12T06:01:33.602Z,81.41
2023-05-12T06:04:16.761Z,80.45
2023-05-12T06:07:01.342Z,79.97
2023-05-12T06:09:44.430Z,80.25
2023-05-12T06:12:28.286Z,79.94
2023-05-12T06:15:11.900Z,79.83
2023-05-12T06:17:55.088Z,78.98
2023-05-12T06:20:38.464Z,79.04
2023-05-12T06:23:23.047Z,77.94
2023-05-12T06:26:07.799Z,79.22
2023-05-12T06:28:50.940Z,77.18
2023-05-12T06:31:34.430Z,76.46
2023-05-12T06:34:17.620Z,76.88
2023-05-12T06:37:00.842Z,76.74
2023-05-12T06:39:45.447Z,75.76
2023-05-12T06:42:28.546Z,76.59
2023-05-12T06:45:13.196Z,73.79
2023-05-12T06:47:57.777Z,73.81
2023-05-12T06:50:42.551Z,73.27
2023-05-12T06:53:25.846Z,72.51
2023-05-12T06:56:13.980Z,71.31
2023-05-12T06:59:01.079Z,71.50
2023-05-12T07:01:44.697Z,72.15
2023-05-12T07:04:29.781Z,71.18
2023-05-12T07:07:13.152Z,71.17
2023-05-12T07:09:56.910Z,69.89
2023-05-12T07:13:09.737Z,69.88
2023-05-12T07:15:53.164Z,69.45
2023-05-12T07:18:36.563Z,70.36
2023-05-12T07:21:20.000Z,69.12
2023-05-12T07:24:03.220Z,67.56
2023-05-12T07:26:49.119Z,66.55
2023-05-12T07:29:33.747Z,66.71
2023-05-12T07:32:17.017Z,65.42
2023-05-12T07:35:00.327Z,64.92
2023-05-12T07:37:43.559Z,64.17
2023-05-12T07:40:26.808Z,64.63
2023-05-12T07:43:19.194Z,63.68
2023-05-12T07:46:06.505Z,63.34
2023-05-12T07:48:51.951Z,62.54
2023-05-12T07:51:35.234Z,62.76
2023-05-12T07:54:18.566Z,61.70
2023-05-12T07:57:01.945Z,62.17
2023-05-12T07:59:45.487Z,62.57
2023-05-12T08:02:30.146Z,62.00
2023-05-12T08:05:15.783Z,60.78
2023-05-12T08:07:59.171Z,60.10
2023-05-12T08:10:42.361Z,59.44
2023-05-12T08:13:26.399Z,58.43
2023-05-12T08:16:12.038Z,56.96
2023-05-12T08:18:56.651Z,56.26
2023-05-12T08:21:40.201Z,53.81
2023-05-12T08:24:23.786Z,55.40
2023-05-12T08:27:07.408Z,51.89
2023-05-12T08:29:50.662Z,50.62
2023-05-12T08:32:33.941Z,49.64
2023-05-12T08:35:20.382Z,48.61
2023-05-12T08:38:04.300Z,48.75
2023-05-12T08:40:55.435Z,49.56
2023-05-12T08:43:45.099Z,49.19
2023-05-12T08:46:28.479Z,47.76
2023-05-12T08:49:15.891Z,47.18
2023-05-12T08:52:02.683Z,48.07
2023-05-12T08:54:55.577Z,48.12
2023-05-12T08:57:39.841Z,49.02
2023-05-12T09:00:25.770Z,48.21
2023-05-12T09:03:09.648Z,49.77
2023-05-12T09:05:52.967Z,51.42
2023-05-12T09:08:39.625Z,50.61
2023-05-12T09:11:24.173Z,51.26
2023-05-12T09:14:11.417Z,51.17
2023-05-12T09:17:00.530Z,51.30
2023-05-12T09:19:43.756Z,50.96
2023-05-12T09:22:30.345Z,49.12
2023-05-12T09:25:19.598Z,50.39
2023-05-12T09:28:03.194Z,50.13
2023-05-12T09:30:46.393Z,49.36
2023-05-12T09:33:29.472Z,48.63
2023-05-12T09:36:17.334Z,48.11
2023-05-12T09:39:04.692Z,48.38
2023-05-12T09:41:49.363Z,46.72
2023-05-12T09:44:33.984Z,44.89
2023-05-12T09:47:17.707Z,43.34
2023-05-12T09:50:03.025Z,41.75
2023-05-12T09:52:48.741Z,41.33
2023-05-12T09:55:34.351Z,42.00
2023-05-12T09:58:20.510Z,41.36
2023-05-12T10:01:21.010Z,41.50
2023-05-12T10:04:09.175Z,41.31
2023-05-12T10:06:53.845Z,40.47
2023-05-12T10:09:41.446Z,38.62
2023-05-12T10:12:24.694Z,36.93
2023-05-12T10:15:11.787Z,36.25
2023-05-12T10:17:56.969Z,35.58
2023-05-12T10:20:41.638Z,33.58
2023-05-12T10:23:26.909Z,32.26
2023-05-12T10:26:11.624Z,28.42
2023-05-12T10:28:55.159Z,26.73
2023-05-12T10:31:41.837Z,30.47
2023-05-12T10:34:25.067Z,30.45
2023-05-12T10:37:14.426Z,29.30
2023-05-12T10:40:01.228Z,29.96
2023-05-12T10:42:44.448Z,28.65
2023-05-12T10:45:27.938Z,30.13
2023-05-12T10:48:17.231Z,30.17
2023-05-12T10:51:08.540Z,31.42
2023-05-12T10:54:01.177Z,32.21
2023-05-12T10:56:45.387Z,31.63
2023-05-12T10:59:29.231Z,32.12
2023-05-12T11:02:18.587Z,31.51
2023-05-12T11:05:07.356Z,32.54
2023-05-12T11:07:52.447Z,33.16
2023-05-12T11:10:36.183Z,32.86
2023-05-12T11:13:20.239Z,34.36
2023-05-12T11:16:03.521Z,35.02
2023-05-12T11:18:46.996Z,35.66
2023-05-12T11:21:33.054Z,35.81
2023-05-12T11:24:16.826Z,35.60
2023-05-12T11:27:00.300Z,37.05
2023-05-12T11:29:45.167Z,38.20
2023-05-12T11:32:30.005Z,38.78
2023-05-12T11:35:15.638Z,38.74
2023-05-12T11:38:00.312Z,38.82
2023-05-12T11:40:44.140Z,39.01
2023-05-12T11:43:29.806Z,38.27
2023-05-12T11:46:12.956Z,38.33
2023-05-12T11:48:57.440Z,39.16
2023-05-12T11:51:44.114Z,39.24
2023-05-12T11:54:30.659Z,39.03
2023-05-12T11:57:13.845Z,40.16
2023-05-12T12:00:01.986Z,40.53
2023-05-12T12:02:45.263Z,41.32
2023-05-12T12:05:28.476Z,41.57
2023-05-12T12:08:14.461Z,41.38
2023-05-12T12:11:01.366Z,41.05
2023-05-12T12:13:52.890Z,41.79
2023-05-12T12:16:37.507Z,41.31
2023-05-12T12:19:20.823Z,41.66
2023-05-12T12:22:04.093Z,42.61
2023-05-12T12:24:47.375Z,43.25
2023-05-12T12:27:34.803Z,43.69
2023-05-12T12:30:18.295Z,43.68
2023-05-12T12:33:01.604Z,43.49
2023-05-12T12:35:44.768Z,43.39
2023-05-12T12:38:27.901Z,43.54
2023-05-12T12:41:11.083Z,44.03
2023-05-12T12:43:55.691Z,43.78
2023-05-12T12:46:38.899Z,43.52
2023-05-12T12:49:22.135Z,43.06
2023-05-12T12:52:05.986Z,43.85
2023-05-12T12:54:49.203Z,43.29
2023-05-12T12:57:32.753Z,43.92
2023-05-12T13:00:18.445Z,43.23
2023-05-12T13:03:01.856Z,44.24
2023-05-12T13:05:45.218Z,44.13
2023-05-12T13:08:28.527Z,44.22
2023-05-12T13:11:12.316Z,45.01
2023-05-12T13:13:55.525Z,43.97
2023-05-12T13:16:40.352Z,43.95
2023-05-12T13:19:23.656Z,43.20
2023-05-12T13:22:07.286Z,43.39
2023-05-12T13:24:50.517Z,42.90
2023-05-12T13:27:34.307Z,42.55
2023-05-12T13:30:17.603Z,43.25
2023-05-12T13:33:04.400Z,42.89
2023-05-12T13:35:49.634Z,43.61
2023-05-12T13:38:34.000Z,44.14
2023-05-12T13:41:17.327Z,44.21
2023-05-12T13:44:00.645Z,44.74
2023-05-12T13:46:44.012Z,45.14
2023-05-12T13:49:28.651Z,44.56
2023-05-12T13:52:12.143Z,44.79
2023-05-12T13:54:55.790Z,44.02
2023-05-12T13:57:39.065Z,44.63
2023-05-12T14:00:22.698Z,44.34
2023-05-12T14:03:06.121Z,45.36
2023-05-12T14:05:50.762Z,45.38
2023-05-12T14:08:34.036Z,45.24
2023-05-12T14:11:17.490Z,45.29
2023-05-12T14:14:01.589Z,45.66
2023-05-12T14:16:44.926Z,45.15
2023-05-12T14:19:31.039Z,44.68
2023-05-12T14:22:25.639Z,44.72
2023-05-12T14:25:10.325Z,45.50
2023-05-12T14:27:53.974Z,44.92
2023-05-12T14:30:39.973Z,43.82
2023-05-12T14:33:23.326Z,43.75
2023-05-12T14:36:08.695Z,43.27
2023-05-12T14:38:53.979Z,44.13
2023-05-12T14:41:37.349Z,44.48
2023-05-12T14:44:20.706Z,44.21
2023-05-12T14:47:03.849Z,45.17
2023-05-12T14:49:47.283Z,45.30
2023-05-12T14:52:31.356Z,45.47
2023-05-12T14:55:17.647Z,44.76
2023-05-12T14:58:03.842Z,44.50
2023-05-12T15:00:47.596Z,45.13
2023-05-12T15:03:31.089Z,46.51
2023-05-12T15:06:16.388Z,46.48
2023-05-12T15:08:59.913Z,45.80
2023-05-12T15:11:45.431Z,46.39
2023-05-12T15:14:28.586Z,46.90
2023-05-12T15:17:12.319Z,46.95
2023-05-12T15:19:56.384Z,47.27
2023-05-12T15:22:40.175Z,46.06
2023-05-12T15:25:23.377Z,46.64
2023-05-12T15:28:08.506Z,47.58
2023-05-12T15:30:57.290Z,48.55
2023-05-12T15:33:40.840Z,48.56
2023-05-12T15:36:24.316Z,49.10
2023-05-12T15:39:07.729Z,48.88
2023-05-12T15:41:54.566Z,48.25
2023-05-12T15:44:39.252Z,49.15
2023-05-12T15:47:22.863Z,48.81
2023-05-12T15:50:06.862Z,48.76
2023-05-12T15:52:50.115Z,49.91
2023-05-12T15:55:33.727Z,50.33
2023-05-12T15:58:17.100Z,50.79
2023-05-12T16:01:01.793Z,51.68
2023-05-12T16:03:45.477Z,51.54
2023-05-12T16:06:28.916Z,50.27
2023-05-12T16:09:13.846Z,51.03
2023-05-12T16:11:57.534Z,50.54
2023-05-12T16:14:41.120Z,50.64
2023-05-12T16:17:26.096Z,50.90
2023-05-12T16:20:10.991Z,50.99
2023-05-12T16:22:55.099Z,50.88
2023-05-12T16:25:38.618Z,51.81
2023-05-12T16:28:22.078Z,51.60
2023-05-12T16:31:08.520Z,52.95
2023-05-12T16:33:53.660Z,53.12
2023-05-12T16:36:40.519Z,53.06
2023-05-12T16:39:24.022Z,53.33
2023-05-12T16:42:07.708Z,54.06
2023-05-12T16:44:51.969Z,54.55
2023-05-12T16:47:35.691Z,55.01
2023-05-12T16:50:20.334Z,55.11
2023-05-12T16:53:03.697Z,55.51
2023-05-12T16:55:46.885Z,54.92
2023-05-12T16:58:32.437Z,54.73
2023-05-12T17:01:15.939Z,55.12
2023-05-12T17:03:59.508Z,54.79
2023-05-12T17:06:46.576Z,55.51
2023-05-12T17:09:29.797Z,55.25
2023-05-12T17:12:14.403Z,55.31
2023-05-12T17:15:06.850Z,55.90
2023-05-12T17:17:51.549Z,56.12
2023-05-12T17:20:34.932Z,56.21
2023-05-12T17:23:19.478Z,56.31
2023-05-12T17:26:03.021Z,55.09
2023-05-12T17:28:46.681Z,56.04
2023-05-12T17:31:30.643Z,56.55
2023-05-12T17:34:13.913Z,56.85
2023-05-12T17:36:57.361Z,55.73
2023-05-12T17:39:44.373Z,55.03
2023-05-12T17:42:31.430Z,56.28
2023-05-12T17:45:15.947Z,55.23
2023-05-12T17:47:59.652Z,55.62
2023-05-12T17:50:47.051Z,56.59
2023-05-12T17:53:30.573Z,56.66
2023-05-12T17:56:15.428Z,56.26
2023-05-12T17:58:59.918Z,55.79
2023-05-12T18:01:43.466Z,56.62
2023-05-12T18:04:26.716Z,56.93
2023-05-12T18:07:09.844Z,57.28
2023-05-12T18:09:55.506Z,57.22
2023-05-12T18:12:40.130Z,57.53
2023-05-12T18:15:24.984Z,57.61
2023-05-12T18:18:08.792Z,58.10
2023-05-12T18:20:52.247Z,57.88
2023-05-12T18:23:41.022Z,58.43
2023-05-12T18:26:24.385Z,59.50
2023-05-12T18:29:11.635Z,60.27
2023-05-12T18:31:55.068Z,59.64
2023-05-12T18:34:38.459Z,61.26
2023-05-12T18:37:22.987Z,60.64
2023-05-12T18:40:07.069Z,61.01
2023-05-12T18:42:52.011Z,62.60
2023-05-12T18:45:40.345Z,61.53
2023-05-12T18:48:23.647Z,60.41
2023-05-12T18:51:06.935Z,60.71
2023-05-12T18:53:50.509Z,60.81
2023-05-12T18:56:34.541Z,61.61
2023-05-12T18:59:17.867Z,62.61
2023-05-12T19:02:03.026Z,64.21
2023-05-12T19:04:47.916Z,61.29
2023-05-12T19:07:31.352Z,61.67
2023-05-12T19:10:14.541Z,59.44
2023-05-12T19:12:57.867Z,62.80
2023-05-12T19:15:40.972Z,61.98
2023-05-12T19:18:25.692Z,61.62
2023-05-12T19:21:09.177Z,61.11
2023-05-12T19:23:52.506Z,60.83
2023-05-12T19:26:35.618Z,61.63
2023-05-12T19:29:18.903Z,61.78
2023-05-12T19:32:02.411Z,62.10
2023-05-12T19:34:46.951Z,62.98
2023-05-12T19:37:33.471Z,63.26
2023-05-12T19:40:16.871Z,63.70
2023-05-12T19:43:00.034Z,64.10
2023-05-12T19:45:43.545Z,65.09
2023-05-12T19:48:26.827Z,65.07
2023-05-12T19:51:11.418Z,66.07
2023-05-12T19:53:54.498Z,66.23
2023-05-12T19:56:38.961Z,66.38
2023-05-12T19:59:22.660Z,66.74
2023-05-12T20:02:06.651Z,66.56
2023-05-12T20:04:49.958Z,65.98
2023-05-12T20:07:35.009Z,65.64
2023-05-12T20:10:18.320Z,65.74
2023-05-12T20:13:05.286Z,65.56
2023-05-12T20:15:49.525Z,66.21
2023-05-12T20:18:34.294Z,66.16
2023-05-12T20:21:17.912Z,66.39
2023-05-12T20:24:02.674Z,66.71
2023-05-12T20:26:45.879Z,67.87
2023-05-12T20:29:30.402Z,66.75
2023-05-12T20:32:14.456Z,67.34
2023-05-12T20:34:58.061Z,67.87
2023-05-12T20:37:41.453Z,68.17
2023-05-12T20:40:26.184Z,67.38
2023-05-12T20:43:13.571Z,64.74
2023-05-12T20:45:56.863Z,64.69
2023-05-12T20:48:41.335Z,64.17
2023-05-12T20:51:27.772Z,64.54
2023-05-12T20:54:11.005Z,64.28
2023-05-12T20:56:56.207Z,64.95
2023-05-12T20:59:39.621Z,64.65
2023-05-12T21:02:23.243Z,65.25
2023-05-12T21:05:08.129Z,65.36
2023-05-12T21:07:51.546Z,65.71
2023-05-12T21:10:39.407Z,66.48
2023-05-12T21:13:24.033Z,66.44
2023-05-12T21:16:07.651Z,66.88
2023-05-12T21:18:50.960Z,67.39
2023-05-12T21:21:34.221Z,66.42
2023-05-12T21:24:17.892Z,66.51
2023-05-12T21:27:04.288Z,66.63
2023-05-12T21:29:48.995Z,66.71
2023-05-12T21:32:32.477Z,66.40
2023-05-12T21:35:15.877Z,66.55
2023-05-12T21:38:02.084Z,66.64
2023-05-12T21:40:45.771Z,66.40
2023-05-12T21:43:28.835Z,66.05
2023-05-12T21:46:13.550Z,65.51
2023-05-12T21:48:56.785Z,65.55
2023-05-12T21:51:40.205Z,65.62
2023-05-12T21:54:24.568Z,64.66
2023-05-12T21:57:08.466Z,63.87
2023-05-12T21:59:51.838Z,63.74
2023-05-12T22:02:37.448Z,63.51
2023-05-12T22:05:21.134Z,61.12
2023-05-12T22:08:04.360Z,61.43
2023-05-12T22:10:47.781Z,61.42
2023-05-12T22:13:31.010Z,60.77
2023-05-12T22:16:14.288Z,61.13
2023-05-12T22:18:59.169Z,59.71
2023-05-12T22:21:44.797Z,58.66
2023-05-12T22:24:28.063Z,59.44
2023-05-12T22:27:11.241Z,58.70
2023-05-12T22:29:55.702Z,58.90
2023-05-12T22:32:39.065Z,57.62
2023-05-12T22:35:23.833Z,57.43
2023-05-12T22:38:07.054Z,56.89
2023-05-12T22:40:50.559Z,56.44
2023-05-12T22:43:34.245Z,56.68
2023-05-12T22:46:17.442Z,56.54
2023-05-12T22:49:01.229Z,56.82
2023-05-12T22:51:46.446Z,56.41
2023-05-12T22:54:30.149Z,56.01
2023-05-12T22:57:13.331Z,55.94
2023-05-12T22:59:57.122Z,56.47
2023-05-12T23:02:40.525Z,55.52
2023-05-12T23:05:24.009Z,55.60
2023-05-12T23:08:09.022Z,56.11
2023-05-12T23:10:52.493Z,56.70
2023-05-12T23:13:35.987Z,56.43
2023-05-12T23:16:19.472Z,56.82
2023-05-12T23:19:02.787Z,59.61
2023-05-12T23:21:45.961Z,61.50
2023-05-12T23:24:30.557Z,63.60
2023-05-12T23:27:13.876Z,63.66
2023-05-12T23:29:57.289Z,65.26
2023-05-12T23:32:41.685Z,64.54
2023-05-12T23:35:25.090Z,64.38
2023-05-12T23:38:08.362Z,63.34
2023-05-12T23:40:52.963Z,64.99
2023-05-12T23:43:36.492Z,64.39
2023-05-12T23:46:19.714Z,61.60
2023-05-12T23:49:02.984Z,63.46
2023-05-12T23:51:46.395Z,62.67
2023-05-12T23:54:30.193Z,61.30
2023-05-12T23:57:14.981Z,61.07
2023-05-12T23:59:58.432Z,60.43
